sensor_id;sensor_type;location;lat;lon;timestamp;P1;durP1;ratioP1;P2;durP2;ratioP2
78732;SDS011;68056;52.530;5.454;2023-07-30T00:01:57;8.70;;;1.90;;
78732;SDS011;68056;52.530;5.454;2023-07-30T00:04:22;7.10;;;2.38;;
78732;SDS011;68056;52.530;5.454;2023-07-30T00:06:48;12.85;;;2.65;;
78732;SDS011;68056;52.530;5.454;2023-07-30T00:09:14;8.18;;;1.83;;
78732;SDS011;68056;52.530;5.454;2023-07-30T00:11:39;9.18;;;2.25;;
78732;SDS011;68056;52.530;5.454;2023-07-30T00:14:05;9.35;;;2.50;;
78732;SDS011;68056;52.530;5.454;2023-07-30T00:16:31;9.13;;;2.33;;
78732;SDS011;68056;52.530;5.454;2023-07-30T00:18:56;10.45;;;2.30;;
78732;SDS011;68056;52.530;5.454;2023-07-30T00:21:22;9.60;;;2.58;;
78732;SDS011;68056;52.530;5.454;2023-07-30T00:23:48;8.15;;;2.63;;
78732;SDS011;68056;52.530;5.454;2023-07-30T00:26:13;8.93;;;2.03;;
78732;SDS011;68056;52.530;5.454;2023-07-30T00:28:39;10.45;;;2.42;;
78732;SDS011;68056;52.530;5.454;2023-07-30T00:31:05;11.85;;;2.28;;
78732;SDS011;68056;52.530;5.454;2023-07-30T00:33:30;10.02;;;2.22;;
78732;SDS011;68056;52.530;5.454;2023-07-30T00:35:56;11.15;;;2.67;;
78732;SDS011;68056;52.530;5.454;2023-07-30T00:38:21;9.18;;;2.45;;
78732;SDS011;68056;52.530;5.454;2023-07-30T00:40:47;14.98;;;2.78;;
78732;SDS011;68056;52.530;5.454;2023-07-30T00:43:13;14.52;;;2.67;;
78732;SDS011;68056;52.530;5.454;2023-07-30T00:45:40;17.45;;;2.80;;
78732;SDS011;68056;52.530;5.454;2023-07-30T00:48:07;9.00;;;2.00;;
78732;SDS011;68056;52.530;5.454;2023-07-30T00:50:33;6.97;;;2.00;;
78732;SDS011;68056;52.530;5.454;2023-07-30T00:52:59;9.68;;;2.35;;
78732;SDS011;68056;52.530;5.454;2023-07-30T00:55:25;10.02;;;2.22;;
78732;SDS011;68056;52.530;5.454;2023-07-30T00:57:51;10.32;;;2.00;;
78732;SDS011;68056;52.530;5.454;2023-07-30T01:00:17;9.15;;;2.90;;
78732;SDS011;68056;52.530;5.454;2023-07-30T01:02:43;13.95;;;2.88;;
78732;SDS011;68056;52.530;5.454;2023-07-30T01:05:09;11.93;;;3.03;;
78732;SDS011;68056;52.530;5.454;2023-07-30T01:07:34;10.45;;;2.63;;
78732;SDS011;68056;52.530;5.454;2023-07-30T01:10:00;8.48;;;2.70;;
78732;SDS011;68056;52.530;5.454;2023-07-30T01:12:27;11.70;;;3.00;;
78732;SDS011;68056;52.530;5.454;2023-07-30T01:14:55;9.43;;;2.53;;
78732;SDS011;68056;52.530;5.454;2023-07-30T01:17:21;10.38;;;2.53;;
78732;SDS011;68056;52.530;5.454;2023-07-30T01:19:47;9.02;;;2.40;;
78732;SDS011;68056;52.530;5.454;2023-07-30T01:22:19;10.13;;;2.00;;
78732;SDS011;68056;52.530;5.454;2023-07-30T01:24:46;8.90;;;2.58;;
78732;SDS011;68056;52.530;5.454;2023-07-30T01:27:13;7.95;;;2.63;;
78732;SDS011;68056;52.530;5.454;2023-07-30T01:30:06;12.65;;;2.42;;
78732;SDS011;68056;52.530;5.454;2023-07-30T01:32:48;11.68;;;2.40;;
78732;SDS011;68056;52.530;5.454;2023-07-30T01:35:15;6.80;;;1.95;;
78732;SDS011;68056;52.530;5.454;2023-07-30T01:37:42;9.63;;;2.75;;
78732;SDS011;68056;52.530;5.454;2023-07-30T01:40:09;14.50;;;2.78;;
78732;SDS011;68056;52.530;5.454;2023-07-30T01:42:35;12.43;;;2.65;;
78732;SDS011;68056;52.530;5.454;2023-07-30T01:45:01;9.77;;;2.70;;
78732;SDS011;68056;52.530;5.454;2023-07-30T01:47:27;15.00;;;2.30;;
78732;SDS011;68056;52.530;5.454;2023-07-30T01:49:53;11.48;;;3.22;;
78732;SDS011;68056;52.530;5.454;2023-07-30T01:52:19;10.93;;;3.60;;
78732;SDS011;68056;52.530;5.454;2023-07-30T01:54:44;12.15;;;2.70;;
78732;SDS011;68056;52.530;5.454;2023-07-30T01:57:13;7.22;;;2.10;;
78732;SDS011;68056;52.530;5.454;2023-07-30T01:59:41;14.10;;;2.70;;
78732;SDS011;68056;52.530;5.454;2023-07-30T02:02:07;12.00;;;2.53;;
78732;SDS011;68056;52.530;5.454;2023-07-30T02:04:33;10.63;;;2.42;;
78732;SDS011;68056;52.530;5.454;2023-07-30T02:06:58;14.98;;;2.95;;
78732;SDS011;68056;52.530;5.454;2023-07-30T02:09:24;10.85;;;2.63;;
78732;SDS011;68056;52.530;5.454;2023-07-30T02:11:50;6.20;;;2.63;;
78732;SDS011;68056;52.530;5.454;2023-07-30T02:14:17;9.73;;;2.58;;
78732;SDS011;68056;52.530;5.454;2023-07-30T02:16:43;10.88;;;2.70;;
78732;SDS011;68056;52.530;5.454;2023-07-30T02:19:08;9.27;;;2.35;;
78732;SDS011;68056;52.530;5.454;2023-07-30T02:21:34;9.43;;;2.25;;
78732;SDS011;68056;52.530;5.454;2023-07-30T02:24:02;10.10;;;2.60;;
78732;SDS011;68056;52.530;5.454;2023-07-30T02:26:27;14.45;;;2.60;;
78732;SDS011;68056;52.530;5.454;2023-07-30T02:28:53;9.93;;;2.15;;
78732;SDS011;68056;52.530;5.454;2023-07-30T02:31:19;12.10;;;2.40;;
78732;SDS011;68056;52.530;5.454;2023-07-30T02:33:44;8.70;;;2.38;;
78732;SDS011;68056;52.530;5.454;2023-07-30T02:36:10;12.82;;;3.28;;
78732;SDS011;68056;52.530;5.454;2023-07-30T02:38:36;9.13;;;2.55;;
78732;SDS011;68056;52.530;5.454;2023-07-30T02:41:01;8.35;;;2.60;;
78732;SDS011;68056;52.530;5.454;2023-07-30T02:43:27;11.00;;;2.55;;
78732;SDS011;68056;52.530;5.454;2023-07-30T02:45:53;6.43;;;2.30;;
78732;SDS011;68056;52.530;5.454;2023-07-30T02:48:18;8.38;;;2.42;;
78732;SDS011;68056;52.530;5.454;2023-07-30T02:50:44;6.85;;;1.95;;
78732;SDS011;68056;52.530;5.454;2023-07-30T02:53:10;11.57;;;2.55;;
78732;SDS011;68056;52.530;5.454;2023-07-30T02:55:35;9.18;;;2.10;;
78732;SDS011;68056;52.530;5.454;2023-07-30T02:58:01;9.40;;;2.55;;
78732;SDS011;68056;52.530;5.454;2023-07-30T03:00:26;11.02;;;2.35;;
78732;SDS011;68056;52.530;5.454;2023-07-30T03:02:52;12.40;;;2.50;;
78732;SDS011;68056;52.530;5.454;2023-07-30T03:05:18;9.00;;;2.30;;
78732;SDS011;68056;52.530;5.454;2023-07-30T03:07:44;8.43;;;2.80;;
78732;SDS011;68056;52.530;5.454;2023-07-30T03:10:09;8.27;;;2.25;;
78732;SDS011;68056;52.530;5.454;2023-07-30T03:12:35;8.65;;;2.45;;
78732;SDS011;68056;52.530;5.454;2023-07-30T03:15:00;9.73;;;2.30;;
78732;SDS011;68056;52.530;5.454;2023-07-30T03:17:26;10.23;;;2.53;;
78732;SDS011;68056;52.530;5.454;2023-07-30T03:19:52;11.25;;;2.60;;
78732;SDS011;68056;52.530;5.454;2023-07-30T03:22:17;12.77;;;2.67;;
78732;SDS011;68056;52.530;5.454;2023-07-30T03:24:43;10.38;;;2.65;;
78732;SDS011;68056;52.530;5.454;2023-07-30T03:27:12;8.20;;;1.88;;
78732;SDS011;68056;52.530;5.454;2023-07-30T03:29:37;13.23;;;2.58;;
78732;SDS011;68056;52.530;5.454;2023-07-30T03:32:03;10.88;;;3.45;;
78732;SDS011;68056;52.530;5.454;2023-07-30T03:34:29;11.02;;;2.53;;
78732;SDS011;68056;52.530;5.454;2023-07-30T03:36:55;9.18;;;2.65;;
78732;SDS011;68056;52.530;5.454;2023-07-30T03:39:20;12.10;;;2.63;;
78732;SDS011;68056;52.530;5.454;2023-07-30T03:41:46;10.25;;;2.33;;
78732;SDS011;68056;52.530;5.454;2023-07-30T03:44:11;13.93;;;2.85;;
78732;SDS011;68056;52.530;5.454;2023-07-30T03:46:37;8.98;;;2.22;;
78732;SDS011;68056;52.530;5.454;2023-07-30T03:49:03;7.90;;;2.00;;
78732;SDS011;68056;52.530;5.454;2023-07-30T03:51:28;12.60;;;2.72;;
78732;SDS011;68056;52.530;5.454;2023-07-30T03:53:54;13.70;;;2.67;;
78732;SDS011;68056;52.530;5.454;2023-07-30T03:56:19;13.65;;;2.97;;
78732;SDS011;68056;52.530;5.454;2023-07-30T03:58:45;11.93;;;2.75;;
78732;SDS011;68056;52.530;5.454;2023-07-30T04:01:11;9.68;;;2.05;;
78732;SDS011;68056;52.530;5.454;2023-07-30T04:03:36;12.65;;;2.40;;
78732;SDS011;68056;52.530;5.454;2023-07-30T04:06:02;9.13;;;2.80;;
78732;SDS011;68056;52.530;5.454;2023-07-30T04:08:28;10.38;;;2.47;;
78732;SDS011;68056;52.530;5.454;2023-07-30T04:10:53;8.45;;;2.40;;
78732;SDS011;68056;52.530;5.454;2023-07-30T04:13:19;9.68;;;2.33;;
78732;SDS011;68056;52.530;5.454;2023-07-30T04:15:46;7.93;;;1.80;;
78732;SDS011;68056;52.530;5.454;2023-07-30T04:18:12;9.50;;;2.38;;
78732;SDS011;68056;52.530;5.454;2023-07-30T04:20:38;10.48;;;2.47;;
78732;SDS011;68056;52.530;5.454;2023-07-30T04:23:04;12.27;;;2.40;;
78732;SDS011;68056;52.530;5.454;2023-07-30T04:25:29;11.57;;;2.50;;
78732;SDS011;68056;52.530;5.454;2023-07-30T04:27:55;11.38;;;2.50;;
78732;SDS011;68056;52.530;5.454;2023-07-30T04:30:20;10.98;;;2.38;;
78732;SDS011;68056;52.530;5.454;2023-07-30T04:32:46;13.93;;;2.45;;
78732;SDS011;68056;52.530;5.454;2023-07-30T04:35:12;12.27;;;3.63;;
78732;SDS011;68056;52.530;5.454;2023-07-30T04:37:37;9.65;;;2.85;;
78732;SDS011;68056;52.530;5.454;2023-07-30T04:40:03;10.75;;;2.80;;
78732;SDS011;68056;52.530;5.454;2023-07-30T04:42:31;8.77;;;2.95;;
78732;SDS011;68056;52.530;5.454;2023-07-30T04:44:57;12.05;;;2.78;;
78732;SDS011;68056;52.530;5.454;2023-07-30T04:47:23;12.90;;;2.78;;
78732;SDS011;68056;52.530;5.454;2023-07-30T04:49:48;11.75;;;2.15;;
78732;SDS011;68056;52.530;5.454;2023-07-30T04:52:14;10.25;;;3.00;;
78732;SDS011;68056;52.530;5.454;2023-07-30T04:54:39;8.10;;;1.85;;
78732;SDS011;68056;52.530;5.454;2023-07-30T04:57:05;5.65;;;1.98;;
78732;SDS011;68056;52.530;5.454;2023-07-30T04:59:31;8.30;;;2.28;;
78732;SDS011;68056;52.530;5.454;2023-07-30T05:01:59;8.55;;;1.92;;
78732;SDS011;68056;52.530;5.454;2023-07-30T05:04:25;10.40;;;2.55;;
78732;SDS011;68056;52.530;5.454;2023-07-30T05:06:50;8.43;;;1.95;;
78732;SDS011;68056;52.530;5.454;2023-07-30T05:09:16;14.43;;;2.47;;
78732;SDS011;68056;52.530;5.454;2023-07-30T05:11:42;9.88;;;2.33;;
78732;SDS011;68056;52.530;5.454;2023-07-30T05:14:07;7.15;;;1.60;;
78732;SDS011;68056;52.530;5.454;2023-07-30T05:16:33;7.43;;;1.88;;
78732;SDS011;68056;52.530;5.454;2023-07-30T05:18:58;7.32;;;1.80;;
78732;SDS011;68056;52.530;5.454;2023-07-30T05:21:24;8.38;;;1.60;;
78732;SDS011;68056;52.530;5.454;2023-07-30T05:23:50;6.30;;;1.58;;
78732;SDS011;68056;52.530;5.454;2023-07-30T05:26:15;14.45;;;2.30;;
78732;SDS011;68056;52.530;5.454;2023-07-30T05:28:41;6.20;;;2.15;;
78732;SDS011;68056;52.530;5.454;2023-07-30T05:31:06;7.57;;;1.85;;
78732;SDS011;68056;52.530;5.454;2023-07-30T05:33:32;7.60;;;1.80;;
78732;SDS011;68056;52.530;5.454;2023-07-30T05:35:58;10.27;;;2.10;;
78732;SDS011;68056;52.530;5.454;2023-07-30T05:38:23;8.63;;;2.22;;
78732;SDS011;68056;52.530;5.454;2023-07-30T05:40:49;9.95;;;2.13;;
78732;SDS011;68056;52.530;5.454;2023-07-30T05:43:14;9.18;;;1.77;;
78732;SDS011;68056;52.530;5.454;2023-07-30T05:45:40;10.23;;;2.25;;
78732;SDS011;68056;52.530;5.454;2023-07-30T05:48:06;11.10;;;2.22;;
78732;SDS011;68056;52.530;5.454;2023-07-30T05:50:31;7.65;;;2.28;;
78732;SDS011;68056;52.530;5.454;2023-07-30T05:52:57;9.70;;;1.95;;
78732;SDS011;68056;52.530;5.454;2023-07-30T05:55:23;7.15;;;2.03;;
78732;SDS011;68056;52.530;5.454;2023-07-30T05:57:48;10.20;;;2.40;;
78732;SDS011;68056;52.530;5.454;2023-07-30T06:00:14;7.53;;;1.58;;
78732;SDS011;68056;52.530;5.454;2023-07-30T06:02:39;8.00;;;2.13;;
78732;SDS011;68056;52.530;5.454;2023-07-30T06:05:05;6.07;;;1.67;;
78732;SDS011;68056;52.530;5.454;2023-07-30T06:07:31;6.57;;;2.35;;
78732;SDS011;68056;52.530;5.454;2023-07-30T06:09:56;9.52;;;2.05;;
78732;SDS011;68056;52.530;5.454;2023-07-30T06:12:22;7.50;;;2.00;;
78732;SDS011;68056;52.530;5.454;2023-07-30T06:14:48;7.40;;;2.00;;
78732;SDS011;68056;52.530;5.454;2023-07-30T06:17:13;9.50;;;2.67;;
78732;SDS011;68056;52.530;5.454;2023-07-30T06:19:39;8.63;;;1.90;;
78732;SDS011;68056;52.530;5.454;2023-07-30T06:22:05;9.00;;;1.90;;
78732;SDS011;68056;52.530;5.454;2023-07-30T06:24:30;5.90;;;2.38;;
78732;SDS011;68056;52.530;5.454;2023-07-30T06:26:56;6.28;;;2.05;;
78732;SDS011;68056;52.530;5.454;2023-07-30T06:29:22;4.65;;;1.75;;
78732;SDS011;68056;52.530;5.454;2023-07-30T06:31:47;12.35;;;2.63;;
78732;SDS011;68056;52.530;5.454;2023-07-30T06:34:13;8.75;;;2.30;;
78732;SDS011;68056;52.530;5.454;2023-07-30T06:36:38;8.15;;;2.15;;
78732;SDS011;68056;52.530;5.454;2023-07-30T06:39:04;8.70;;;2.33;;
78732;SDS011;68056;52.530;5.454;2023-07-30T06:41:31;10.55;;;2.67;;
78732;SDS011;68056;52.530;5.454;2023-07-30T06:43:57;7.75;;;2.25;;
78732;SDS011;68056;52.530;5.454;2023-07-30T06:46:22;5.95;;;2.13;;
78732;SDS011;68056;52.530;5.454;2023-07-30T06:48:48;9.10;;;2.72;;
78732;SDS011;68056;52.530;5.454;2023-07-30T06:51:13;9.68;;;2.08;;
78732;SDS011;68056;52.530;5.454;2023-07-30T06:53:45;10.52;;;1.90;;
78732;SDS011;68056;52.530;5.454;2023-07-30T06:56:11;12.20;;;2.00;;
78732;SDS011;68056;52.530;5.454;2023-07-30T06:58:36;7.40;;;1.73;;
78732;SDS011;68056;52.530;5.454;2023-07-30T07:01:02;8.85;;;1.98;;
78732;SDS011;68056;52.530;5.454;2023-07-30T07:03:27;15.07;;;3.42;;
78732;SDS011;68056;52.530;5.454;2023-07-30T07:05:56;7.72;;;1.90;;
78732;SDS011;68056;52.530;5.454;2023-07-30T07:08:22;8.80;;;2.75;;
78732;SDS011;68056;52.530;5.454;2023-07-30T07:10:48;9.35;;;2.30;;
78732;SDS011;68056;52.530;5.454;2023-07-30T07:13:14;9.90;;;2.90;;
78732;SDS011;68056;52.530;5.454;2023-07-30T07:15:41;10.50;;;2.38;;
78732;SDS011;68056;52.530;5.454;2023-07-30T07:18:07;12.40;;;2.80;;
78732;SDS011;68056;52.530;5.454;2023-07-30T07:20:33;8.77;;;3.03;;
78732;SDS011;68056;52.530;5.454;2023-07-30T07:23:09;12.40;;;2.33;;
78732;SDS011;68056;52.530;5.454;2023-07-30T07:25:34;9.02;;;2.30;;
78732;SDS011;68056;52.530;5.454;2023-07-30T07:28:00;12.95;;;3.25;;
78732;SDS011;68056;52.530;5.454;2023-07-30T07:30:26;11.70;;;2.60;;
78732;SDS011;68056;52.530;5.454;2023-07-30T07:32:52;8.52;;;2.60;;
78732;SDS011;68056;52.530;5.454;2023-07-30T07:35:18;12.45;;;2.67;;
78732;SDS011;68056;52.530;5.454;2023-07-30T07:37:48;10.93;;;2.95;;
78732;SDS011;68056;52.530;5.454;2023-07-30T07:40:16;8.82;;;2.45;;
78732;SDS011;68056;52.530;5.454;2023-07-30T07:42:41;12.98;;;2.95;;
78732;SDS011;68056;52.530;5.454;2023-07-30T07:45:07;6.20;;;1.92;;
78732;SDS011;68056;52.530;5.454;2023-07-30T07:47:33;9.88;;;2.20;;
78732;SDS011;68056;52.530;5.454;2023-07-30T07:49:59;11.55;;;2.92;;
78732;SDS011;68056;52.530;5.454;2023-07-30T07:52:24;11.52;;;2.75;;
78732;SDS011;68056;52.530;5.454;2023-07-30T07:54:50;9.02;;;2.78;;
78732;SDS011;68056;52.530;5.454;2023-07-30T07:57:16;10.30;;;2.55;;
78732;SDS011;68056;52.530;5.454;2023-07-30T07:59:41;7.85;;;2.40;;
78732;SDS011;68056;52.530;5.454;2023-07-30T08:02:10;9.10;;;2.42;;
78732;SDS011;68056;52.530;5.454;2023-07-30T08:04:36;8.68;;;2.00;;
78732;SDS011;68056;52.530;5.454;2023-07-30T08:07:02;14.38;;;2.78;;
78732;SDS011;68056;52.530;5.454;2023-07-30T08:09:28;7.60;;;1.98;;
78732;SDS011;68056;52.530;5.454;2023-07-30T08:11:55;5.95;;;2.20;;
78732;SDS011;68056;52.530;5.454;2023-07-30T08:14:20;8.98;;;2.58;;
78732;SDS011;68056;52.530;5.454;2023-07-30T08:16:46;8.63;;;2.70;;
78732;SDS011;68056;52.530;5.454;2023-07-30T08:19:12;7.78;;;2.13;;
78732;SDS011;68056;52.530;5.454;2023-07-30T08:21:37;10.95;;;2.60;;
78732;SDS011;68056;52.530;5.454;2023-07-30T08:24:03;8.02;;;1.98;;
78732;SDS011;68056;52.530;5.454;2023-07-30T08:26:29;9.25;;;1.70;;
78732;SDS011;68056;52.530;5.454;2023-07-30T08:28:55;6.97;;;1.98;;
78732;SDS011;68056;52.530;5.454;2023-07-30T08:31:20;8.35;;;2.33;;
78732;SDS011;68056;52.530;5.454;2023-07-30T08:33:46;11.15;;;2.10;;
78732;SDS011;68056;52.530;5.454;2023-07-30T08:36:12;10.35;;;2.42;;
78732;SDS011;68056;52.530;5.454;2023-07-30T08:38:53;8.27;;;2.25;;
78732;SDS011;68056;52.530;5.454;2023-07-30T08:41:24;9.48;;;2.35;;
78732;SDS011;68056;52.530;5.454;2023-07-30T08:43:50;12.85;;;2.42;;
78732;SDS011;68056;52.530;5.454;2023-07-30T08:46:17;8.40;;;1.77;;
78732;SDS011;68056;52.530;5.454;2023-07-30T08:48:43;4.28;;;1.67;;
78732;SDS011;68056;52.530;5.454;2023-07-30T08:51:09;7.70;;;1.58;;
78732;SDS011;68056;52.530;5.454;2023-07-30T08:53:37;7.30;;;1.88;;
78732;SDS011;68056;52.530;5.454;2023-07-30T08:56:05;3.17;;;1.20;;
78732;SDS011;68056;52.530;5.454;2023-07-30T08:58:31;5.00;;;1.40;;
78732;SDS011;68056;52.530;5.454;2023-07-30T09:00:59;4.07;;;1.48;;
78732;SDS011;68056;52.530;5.454;2023-07-30T09:03:31;5.70;;;1.50;;
78732;SDS011;68056;52.530;5.454;2023-07-30T09:06:00;3.47;;;1.40;;
78732;SDS011;68056;52.530;5.454;2023-07-30T09:08:25;5.45;;;1.30;;
78732;SDS011;68056;52.530;5.454;2023-07-30T09:10:51;2.60;;;0.90;;
78732;SDS011;68056;52.530;5.454;2023-07-30T09:13:23;4.68;;;1.08;;
78732;SDS011;68056;52.530;5.454;2023-07-30T09:15:49;3.92;;;0.90;;
78732;SDS011;68056;52.530;5.454;2023-07-30T09:18:17;3.08;;;0.90;;
78732;SDS011;68056;52.530;5.454;2023-07-30T09:20:43;7.35;;;1.70;;
78732;SDS011;68056;52.530;5.454;2023-07-30T09:23:09;5.25;;;1.23;;
78732;SDS011;68056;52.530;5.454;2023-07-30T09:25:36;6.07;;;1.30;;
78732;SDS011;68056;52.530;5.454;2023-07-30T09:28:03;6.32;;;1.52;;
78732;SDS011;68056;52.530;5.454;2023-07-30T09:30:30;3.65;;;1.20;;
78732;SDS011;68056;52.530;5.454;2023-07-30T09:32:58;5.32;;;1.58;;
78732;SDS011;68056;52.530;5.454;2023-07-30T09:35:24;4.28;;;1.25;;
78732;SDS011;68056;52.530;5.454;2023-07-30T09:37:58;6.40;;;1.30;;
78732;SDS011;68056;52.530;5.454;2023-07-30T09:40:32;4.75;;;1.42;;
78732;SDS011;68056;52.530;5.454;2023-07-30T09:42:59;5.05;;;1.27;;
78732;SDS011;68056;52.530;5.454;2023-07-30T09:47:53;4.50;;;1.30;;
78732;SDS011;68056;52.530;5.454;2023-07-30T09:50:21;5.43;;;1.38;;
78732;SDS011;68056;52.530;5.454;2023-07-30T09:52:47;4.32;;;1.25;;
78732;SDS011;68056;52.530;5.454;2023-07-30T09:55:18;5.05;;;1.42;;
78732;SDS011;68056;52.530;5.454;2023-07-30T09:57:44;4.15;;;1.15;;
78732;SDS011;68056;52.530;5.454;2023-07-30T10:00:10;6.88;;;1.30;;
78732;SDS011;68056;52.530;5.454;2023-07-30T10:02:40;4.70;;;1.40;;
78732;SDS011;68056;52.530;5.454;2023-07-30T10:05:16;7.68;;;1.60;;
78732;SDS011;68056;52.530;5.454;2023-07-30T10:07:57;5.95;;;1.58;;
78732;SDS011;68056;52.530;5.454;2023-07-30T10:10:46;6.13;;;1.40;;
78732;SDS011;68056;52.530;5.454;2023-07-30T10:13:13;5.72;;;1.38;;
78732;SDS011;68056;52.530;5.454;2023-07-30T10:15:41;7.40;;;1.40;;
78732;SDS011;68056;52.530;5.454;2023-07-30T10:18:08;3.85;;;1.30;;
78732;SDS011;68056;52.530;5.454;2023-07-30T10:20:34;2.75;;;1.08;;
78732;SDS011;68056;52.530;5.454;2023-07-30T10:23:00;5.95;;;1.33;;
78732;SDS011;68056;52.530;5.454;2023-07-30T10:28:06;4.82;;;1.70;;
78732;SDS011;68056;52.530;5.454;2023-07-30T10:30:32;3.22;;;1.27;;
78732;SDS011;68056;52.530;5.454;2023-07-30T10:32:58;4.47;;;1.58;;
78732;SDS011;68056;52.530;5.454;2023-07-30T10:35:46;4.57;;;1.20;;
78732;SDS011;68056;52.530;5.454;2023-07-30T10:41:05;5.32;;;1.05;;
78732;SDS011;68056;52.530;5.454;2023-07-30T10:43:36;6.70;;;1.45;;
78732;SDS011;68056;52.530;5.454;2023-07-30T10:46:04;5.00;;;1.42;;
78732;SDS011;68056;52.530;5.454;2023-07-30T10:48:31;5.32;;;1.33;;
78732;SDS011;68056;52.530;5.454;2023-07-30T10:51:01;5.35;;;1.65;;
78732;SDS011;68056;52.530;5.454;2023-07-30T10:53:30;3.35;;;1.25;;
78732;SDS011;68056;52.530;5.454;2023-07-30T10:55:59;4.40;;;0.93;;
78732;SDS011;68056;52.530;5.454;2023-07-30T10:58:29;4.75;;;1.17;;
78732;SDS011;68056;52.530;5.454;2023-07-30T11:00:56;6.35;;;1.25;;
78732;SDS011;68056;52.530;5.454;2023-07-30T11:03:25;3.05;;;1.00;;
78732;SDS011;68056;52.530;5.454;2023-07-30T11:05:51;6.25;;;1.40;;
78732;SDS011;68056;52.530;5.454;2023-07-30T11:08:18;4.50;;;1.38;;
78732;SDS011;68056;52.530;5.454;2023-07-30T11:10:44;8.70;;;1.67;;
78732;SDS011;68056;52.530;5.454;2023-07-30T11:13:12;6.10;;;1.55;;
78732;SDS011;68056;52.530;5.454;2023-07-30T11:15:42;5.22;;;1.35;;
78732;SDS011;68056;52.530;5.454;2023-07-30T11:18:09;5.43;;;1.40;;
78732;SDS011;68056;52.530;5.454;2023-07-30T11:20:35;4.90;;;1.60;;
78732;SDS011;68056;52.530;5.454;2023-07-30T11:23:02;6.28;;;1.33;;
78732;SDS011;68056;52.530;5.454;2023-07-30T11:25:27;4.47;;;1.35;;
78732;SDS011;68056;52.530;5.454;2023-07-30T11:27:53;5.68;;;1.30;;
78732;SDS011;68056;52.530;5.454;2023-07-30T11:30:18;3.63;;;0.98;;
78732;SDS011;68056;52.530;5.454;2023-07-30T11:32:44;6.38;;;1.40;;
78732;SDS011;68056;52.530;5.454;2023-07-30T11:35:11;5.40;;;1.30;;
78732;SDS011;68056;52.530;5.454;2023-07-30T11:37:38;5.05;;;1.50;;
78732;SDS011;68056;52.530;5.454;2023-07-30T11:40:07;4.40;;;1.23;;
78732;SDS011;68056;52.530;5.454;2023-07-30T11:42:34;3.80;;;1.13;;
78732;SDS011;68056;52.530;5.454;2023-07-30T11:45:16;5.47;;;1.67;;
78732;SDS011;68056;52.530;5.454;2023-07-30T11:47:48;5.90;;;1.25;;
78732;SDS011;68056;52.530;5.454;2023-07-30T11:50:14;5.53;;;1.20;;
78732;SDS011;68056;52.530;5.454;2023-07-30T11:52:54;6.72;;;1.33;;
78732;SDS011;68056;52.530;5.454;2023-07-30T11:55:20;6.60;;;1.52;;
78732;SDS011;68056;52.530;5.454;2023-07-30T11:57:46;3.78;;;1.20;;
78732;SDS011;68056;52.530;5.454;2023-07-30T12:00:12;3.33;;;1.00;;
78732;SDS011;68056;52.530;5.454;2023-07-30T12:02:38;5.88;;;1.15;;
78732;SDS011;68056;52.530;5.454;2023-07-30T12:05:04;3.40;;;1.23;;
78732;SDS011;68056;52.530;5.454;2023-07-30T12:07:32;3.97;;;1.38;;
78732;SDS011;68056;52.530;5.454;2023-07-30T12:10:10;3.05;;;1.00;;
78732;SDS011;68056;52.530;5.454;2023-07-30T12:12:42;4.55;;;1.10;;
78732;SDS011;68056;52.530;5.454;2023-07-30T12:15:12;5.53;;;1.20;;
78732;SDS011;68056;52.530;5.454;2023-07-30T12:17:38;4.45;;;1.13;;
78732;SDS011;68056;52.530;5.454;2023-07-30T12:20:05;7.10;;;1.35;;
78732;SDS011;68056;52.530;5.454;2023-07-30T12:22:34;4.82;;;1.00;;
78732;SDS011;68056;52.530;5.454;2023-07-30T12:25:01;2.20;;;1.00;;
78732;SDS011;68056;52.530;5.454;2023-07-30T12:27:30;2.80;;;1.02;;
78732;SDS011;68056;52.530;5.454;2023-07-30T12:29:56;2.90;;;1.25;;
78732;SDS011;68056;52.530;5.454;2023-07-30T12:32:21;9.20;;;2.45;;
78732;SDS011;68056;52.530;5.454;2023-07-30T12:34:47;5.70;;;1.33;;
78732;SDS011;68056;52.530;5.454;2023-07-30T12:37:13;4.03;;;1.05;;
78732;SDS011;68056;52.530;5.454;2023-07-30T12:39:39;6.15;;;1.05;;
78732;SDS011;68056;52.530;5.454;2023-07-30T12:42:04;3.90;;;1.08;;
78732;SDS011;68056;52.530;5.454;2023-07-30T12:44:30;3.03;;;1.10;;
78732;SDS011;68056;52.530;5.454;2023-07-30T12:46:55;4.97;;;1.08;;
78732;SDS011;68056;52.530;5.454;2023-07-30T12:49:21;3.97;;;1.10;;
78732;SDS011;68056;52.530;5.454;2023-07-30T12:51:47;7.38;;;0.93;;
78732;SDS011;68056;52.530;5.454;2023-07-30T12:54:13;5.60;;;1.10;;
78732;SDS011;68056;52.530;5.454;2023-07-30T12:56:38;5.20;;;1.02;;
78732;SDS011;68056;52.530;5.454;2023-07-30T12:59:04;4.57;;;0.95;;
78732;SDS011;68056;52.530;5.454;2023-07-30T13:01:29;6.00;;;1.48;;
78732;SDS011;68056;52.530;5.454;2023-07-30T13:03:55;9.02;;;1.58;;
78732;SDS011;68056;52.530;5.454;2023-07-30T13:06:20;3.92;;;0.80;;
78732;SDS011;68056;52.530;5.454;2023-07-30T13:08:46;5.45;;;1.35;;
78732;SDS011;68056;52.530;5.454;2023-07-30T13:11:12;4.28;;;1.02;;
78732;SDS011;68056;52.530;5.454;2023-07-30T13:13:38;8.07;;;1.10;;
78732;SDS011;68056;52.530;5.454;2023-07-30T13:16:03;4.43;;;1.40;;
78732;SDS011;68056;52.530;5.454;2023-07-30T13:18:29;5.10;;;1.00;;
78732;SDS011;68056;52.530;5.454;2023-07-30T13:20:55;6.20;;;1.10;;
78732;SDS011;68056;52.530;5.454;2023-07-30T13:23:20;3.95;;;1.02;;
78732;SDS011;68056;52.530;5.454;2023-07-30T13:25:46;3.45;;;0.90;;
78732;SDS011;68056;52.530;5.454;2023-07-30T13:28:12;4.45;;;1.20;;
78732;SDS011;68056;52.530;5.454;2023-07-30T13:30:37;2.95;;;0.70;;
78732;SDS011;68056;52.530;5.454;2023-07-30T13:33:03;5.45;;;1.20;;
78732;SDS011;68056;52.530;5.454;2023-07-30T13:35:29;3.50;;;0.98;;
78732;SDS011;68056;52.530;5.454;2023-07-30T13:37:54;3.20;;;1.00;;
78732;SDS011;68056;52.530;5.454;2023-07-30T13:40:20;5.43;;;1.10;;
78732;SDS011;68056;52.530;5.454;2023-07-30T13:42:58;5.55;;;1.25;;
78732;SDS011;68056;52.530;5.454;2023-07-30T13:45:23;5.80;;;0.80;;
78732;SDS011;68056;52.530;5.454;2023-07-30T13:47:49;5.55;;;1.20;;
78732;SDS011;68056;52.530;5.454;2023-07-30T13:50:14;4.75;;;1.00;;
78732;SDS011;68056;52.530;5.454;2023-07-30T13:52:40;1.60;;;0.80;;
78732;SDS011;68056;52.530;5.454;2023-07-30T13:55:06;3.45;;;0.90;;
78732;SDS011;68056;52.530;5.454;2023-07-30T13:57:32;3.95;;;0.80;;
78732;SDS011;68056;52.530;5.454;2023-07-30T13:59:57;7.18;;;1.25;;
78732;SDS011;68056;52.530;5.454;2023-07-30T14:02:23;2.85;;;0.88;;
78732;SDS011;68056;52.530;5.454;2023-07-30T14:04:48;3.63;;;1.05;;
78732;SDS011;68056;52.530;5.454;2023-07-30T14:07:14;3.50;;;0.82;;
78732;SDS011;68056;52.530;5.454;2023-07-30T14:09:39;4.40;;;1.00;;
78732;SDS011;68056;52.530;5.454;2023-07-30T14:12:05;3.20;;;0.70;;
78732;SDS011;68056;52.530;5.454;2023-07-30T14:14:31;5.82;;;1.15;;
78732;SDS011;68056;52.530;5.454;2023-07-30T14:16:57;2.53;;;0.80;;
78732;SDS011;68056;52.530;5.454;2023-07-30T14:19:23;5.15;;;1.40;;
78732;SDS011;68056;52.530;5.454;2023-07-30T14:21:48;4.80;;;1.13;;
78732;SDS011;68056;52.530;5.454;2023-07-30T14:24:14;5.45;;;1.02;;
78732;SDS011;68056;52.530;5.454;2023-07-30T14:26:39;3.28;;;1.15;;
78732;SDS011;68056;52.530;5.454;2023-07-30T14:29:05;3.17;;;1.15;;
78732;SDS011;68056;52.530;5.454;2023-07-30T14:31:31;3.03;;;1.05;;
78732;SDS011;68056;52.530;5.454;2023-07-30T14:33:56;5.57;;;1.15;;
78732;SDS011;68056;52.530;5.454;2023-07-30T14:36:22;6.53;;;1.15;;
78732;SDS011;68056;52.530;5.454;2023-07-30T14:38:48;2.83;;;1.23;;
78732;SDS011;68056;52.530;5.454;2023-07-30T14:41:14;6.32;;;1.40;;
78732;SDS011;68056;52.530;5.454;2023-07-30T14:43:39;3.55;;;1.20;;
78732;SDS011;68056;52.530;5.454;2023-07-30T14:46:05;3.55;;;0.95;;
78732;SDS011;68056;52.530;5.454;2023-07-30T14:48:31;4.20;;;1.15;;